Monticello, Maine
46° 20' 20"N, 67° 53' 10"W, Elevation 575 ft.
Eastern Time

Hourly observations for the last 48 hours

Date

Time

Temperature (F) Humi-
dity
(%)
Wind
(mph)
Pressure Rain (in) Sun
(W/m2)
UV ET
(in)
Air Dew 6 Hour 1 Hr 3 Hr 6 Hr Day
Alt
(in)
Sea
Level
(mb)
Max Min
7 05:00 25.7 14.8 63 W 4 G 6 29.72 1006.3 0.00 0 0.0 0.004
7 04:00 26.3 15.4 63 NNW 2 G 9 29.71 1006.3 0.00 0 0.0 0.003
7 03:00 26.7 16.2 64 WSW 0 G 4 29.71 1006.1 0.00 0 0.0 0.002
7 02:00 27.3 16.4 39.2 27.3 63 W 3 G 6 29.71 1006.3 0.00 0 0.0 0.001
7 01:00 29.5 17.7 61 NW 0 G 2 29.72 1006.4 0.00 0 0.0 0.000
7 00:00 31.5 17.2 55 N 3 G 11 29.72 1006.4 0.02 0 0.0 0.151
6 23:00 32.5 19.8 59 NNW 3 G 12 29.70 1005.8 0.02 0 0.0 0.150
6 22:00 34.0 19.9 56 NW 2 G 5 29.70 1005.8 0.02 0 0.0 0.149
6 21:00 36.2 21.6 55 N 2 G 10 29.70 1005.8 0.02 0 0.0 0.147
6 20:00 39.2 21.2 48.8 39.2 48 N 10 G 20 29.67 1004.7 0.02 0 0.0 0.144
6 19:00 43.3 18.1 36 NW 5 G 13 29.62 1003.1 0.02 0 0.0 0.141
6 18:00 44.5 17.2 33 WNW 5 G 17 29.62 1003.2 0.02 58 0.0 0.136
6 17:00 46.0 14.7 28 WNW 7 G 23 29.61 1002.7 0.02 403 0.5 0.126
6 16:00 47.9 14.6 26 WNW 7 G 19 29.60 1002.6 0.02 603 1.5 0.112
6 15:00 48.0 13.8 25 W 11 G 29 29.62 1003.0 0.02 657 3.5 0.096
6 14:00 48.2 14.9 48.5 36.6 26 W 5 G 19 29.64 1003.7 0.02 751 4.8 0.078
6 13:00 46.7 14.5 27 W 7 G 22 29.66 1004.5 0.02 824 5.5 0.060
6 12:00 44.9 16.8 32 W 9 G 20 29.70 1005.7 0.02 837 5.5 0.043
6 11:00 43.2 16.7 34 W 6 G 25 29.73 1006.7 0.02 791 4.6 0.028
6 10:00 41.3 19.9 42 WNW 7 G 18 29.75 1007.3 0.02 687 3.3 0.016
6 09:00 39.8 24.1 53 WSW 9 G 18 29.76 1007.8 0.02 541 1.9 0.008
6 08:00 36.6 27.4 40.5 31.3 69 W 5 G 11 29.77 1008.1 0.02 0.02 357 0.8 0.004
6 07:00 32.4 26.6 79 W 4 G 10 29.76 1008.0 0.02 142 0.0 0.003
6 06:00 31.6 25.2 77 WNW 3 G 7 29.75 1007.3 0.02 5 0.0 0.003
6 05:00 33.2 26.5 76 W 2 G 7 29.74 1007.2 0.02 0.02 0 0.0 0.002
6 04:00 35.2 29.3 79 N 3 G 8 29.74 1007.0 0.02 0 0.0 0.001
6 03:00 37.5 34.6 89 NW 2 G 6 29.72 1006.4 0.02 0.02 0 0.0 0.001
6 02:00 40.2 36.6 44.5 39.9 87 W 3 G 7 29.69 1005.6 0.00 0 0.0 0.001
6 01:00 40.9 35.2 80 WSW 0 G 6 29.70 1005.9 0.00 0 0.0 0.000
6 00:00 42.1 35.4 77 SW 2 G 5 29.70 1006.0 0.00 0 0.0 0.093
5 23:00 43.3 35.2 73 SSW 4 G 9 29.72 1006.5 0.00 0 0.0 0.092
5 22:00 43.8 33.9 68 S 4 G 10 29.73 1006.9 0.00 0 0.0 0.091
5 21:00 43.9 32.9 65 SSE 2 G 5 29.75 1007.6 0.00 0 0.0 0.090
5 20:00 42.6 30.9 55.1 42.6 63 SSW 2 G 6 29.76 1007.9 0.00 0 0.0 0.090
5 19:00 47.9 31.1 52 S 1 G 4 29.77 1008.1 0.00 5 0.0 0.089
5 18:00 50.8 30.2 45 S 4 G 10 29.77 1008.3 0.00 67 0.0 0.085
5 17:00 52.8 30.3 42 SSE 6 G 14 29.77 1008.2 0.00 155 0.7 0.077
5 16:00 53.6 29.9 40 S 6 G 13 29.78 1008.6 0.00 329 2.0 0.066
5 15:00 53.2 30.1 41 S 4 G 13 29.81 1009.3 0.00 406 3.4 0.055
5 14:00 54.7 29.6 54.7 35.0 38 SSE 7 G 13 29.83 1010.3 0.00 867 6.9 0.041
5 13:00 53.1 28.8 39 SSW 8 G 14 29.86 1011.4 0.00 520 7.0 0.026
5 12:00 49.6 29.1 45 S 5 G 13 29.89 1012.1 0.00 519 5.3 0.016
5 11:00 46.7 29.5 51 SSW 5 G 11 29.92 1013.1 0.00 385 3.9 0.009
5 10:00 43.1 31.0 62 S 5 G 7 29.93 1013.6 0.00 267 2.3 0.004
5 09:00 38.8 30.9 73 SSW 2 G 4 29.94 1013.9 0.00 246 1.6 0.001
5 08:00 35.0 29.2 35.2 33.4 79 E 0 G 3 29.95 1014.3 0.00 139 0.6 0.000
5 07:00 33.5 28.3 81 SE 0 G 1 29.94 1014.1 0.00 37 0.0 0.000
5 06:00 33.4 28.2 81 SE 0 G 2 29.94 1013.8 0.00 0 0.0 0.000
5 05:00 33.8 28.9 82 Calm 29.93 1013.7 0.00 0 0.0 0.000
5 04:00 34.6 28.8 79 E 1 G 2 29.93 1013.7 0.00 0 0.0 0.000
5 03:00 35.0 28.8 78 E 0 G 2 29.93 1013.5 0.00 0 0.0 0.000
5 02:00 35.2 28.7 36.5 29.0 77 Calm 29.93 1013.7 0.00 0 0.0 0.000
5 01:00 34.9 29.4 80 Calm 29.93 1013.7 0.00 0 0.0 0.000
5 00:00 35.9 29.4 77 Calm 29.93 1013.7 0.00 0 0.0 0.109
4 23:00 36.0 28.5 74 E 0 G 1 29.94 1013.8 0.00 0 0.0 0.108
4 20:00 29.0 27.0 29.0 29.0 92 NNE 4 G 4 29.56 1001.2 0.00 9 0.0 0.000
4 19:00 29.0 27.0 92 NNE 4 G 4 29.56 1001.2 0.00 9 0.0 0.000
4 18:00 29.0 27.0 92 NNE 4 G 4 29.56 1001.2 0.00 9 0.0 0.000
4 17:00 29.0 27.0 92 NNE 4 G 4 29.56 1001.2 0.00 9 0.0 0.000
4 16:00 29.0 27.0 92 NNE 4 G 4 29.56 1001.2 0.00 9 0.0 0.000
4 15:00 29.0 27.0 92 NNE 4 G 4 29.56 1001.2 0.00 9 0.0 0.000
4 14:00 29.0 27.0 29.0 29.0 92 NNE 4 G 4 29.56 1001.2 0.00 9 0.0 0.000
4 13:00 29.0 27.0 92 NNE 4 G 4 29.56 1001.2 0.00 9 0.0 0.000
4 12:00 29.0 27.0 92 NNE 4 G 4 29.56 1001.2 0.00 9 0.0 0.000
4 11:00 29.0 27.0 92 NNE 4 G 4 29.56 1001.2 0.00 9 0.0 0.000
4 10:00 29.0 27.0 92 NNE 4 G 4 29.56 1001.2 0.00 9 0.0 0.000
4 09:00 29.0 27.0 92 NNE 4 G 4 29.56 1001.2 0.00 9 0.0 0.000
4 08:00 29.0 27.0 29.0 29.0 92 NNE 4 G 4 29.56 1001.2 0.00 9 0.0 0.000
4 07:00 29.0 27.0 92 NNE 4 G 4 29.56 1001.2 0.00 9 0.0 0.000
4 06:00 29.0 27.0 92 NNE 4 G 4 29.56 1001.2 0.00 9 0.0 0.000

Data generated by WxSolution Version 1.9.1.7, Build 2018.11.24.